sensor_id;sensor_type;location;lat;lon;timestamp;temperature;humidity
75471;HTU21D;64051;46.320;48.028;2022-10-31T00:02:11;11.62;84.83
75471;HTU21D;64051;46.320;48.028;2022-10-31T00:04:36;11.61;85.23
75471;HTU21D;64051;46.320;48.028;2022-10-31T00:07:02;11.62;85.03
75471;HTU21D;64051;46.320;48.028;2022-10-31T00:09:28;11.63;84.99
75471;HTU21D;64051;46.320;48.028;2022-10-31T00:11:53;11.63;85.23
75471;HTU21D;64051;46.320;48.028;2022-10-31T00:14:19;11.66;85.03
75471;HTU21D;64051;46.320;48.028;2022-10-31T00:16:45;11.66;85.39
75471;HTU21D;64051;46.320;48.028;2022-10-31T00:19:11;11.66;85.35
75471;HTU21D;64051;46.320;48.028;2022-10-31T00:21:36;11.67;84.80
75471;HTU21D;64051;46.320;48.028;2022-10-31T00:24:02;11.68;85.08
75471;HTU21D;64051;46.320;48.028;2022-10-31T00:26:28;11.69;85.37
75471;HTU21D;64051;46.320;48.028;2022-10-31T00:28:54;11.68;85.20
75471;HTU21D;64051;46.320;48.028;2022-10-31T00:31:20;11.67;85.16
75471;HTU21D;64051;46.320;48.028;2022-10-31T00:33:46;11.66;85.12
75471;HTU21D;64051;46.320;48.028;2022-10-31T00:36:13;11.64;85.19
75471;HTU21D;64051;46.320;48.028;2022-10-31T00:38:40;11.66;85.13
75471;HTU21D;64051;46.320;48.028;2022-10-31T00:41:06;11.63;85.28
75471;HTU21D;64051;46.320;48.028;2022-10-31T00:43:31;11.62;85.08
75471;HTU21D;64051;46.320;48.028;2022-10-31T00:45:57;11.60;85.17
75471;HTU21D;64051;46.320;48.028;2022-10-31T00:48:23;11.59;85.06
75471;HTU21D;64051;46.320;48.028;2022-10-31T00:50:49;11.57;85.19
75471;HTU21D;64051;46.320;48.028;2022-10-31T00:53:15;11.56;85.45
75471;HTU21D;64051;46.320;48.028;2022-10-31T00:55:41;11.55;85.07
75471;HTU21D;64051;46.320;48.028;2022-10-31T00:58:07;11.55;85.29
75471;HTU21D;64051;46.320;48.028;2022-10-31T01:00:32;11.53;84.99
75471;HTU21D;64051;46.320;48.028;2022-10-31T01:02:58;11.51;85.58
75471;HTU21D;64051;46.320;48.028;2022-10-31T01:05:24;11.51;86.00
75471;HTU21D;64051;46.320;48.028;2022-10-31T01:07:50;11.53;85.67
75471;HTU21D;64051;46.320;48.028;2022-10-31T01:10:15;11.57;85.88
75471;HTU21D;64051;46.320;48.028;2022-10-31T01:12:43;11.62;85.58
75471;HTU21D;64051;46.320;48.028;2022-10-31T01:15:10;11.63;85.71
75471;HTU21D;64051;46.320;48.028;2022-10-31T01:17:37;11.63;85.25
75471;HTU21D;64051;46.320;48.028;2022-10-31T01:20:03;11.62;85.35
75471;HTU21D;64051;46.320;48.028;2022-10-31T01:22:30;11.58;85.00
75471;HTU21D;64051;46.320;48.028;2022-10-31T01:24:59;11.55;84.89
75471;HTU21D;64051;46.320;48.028;2022-10-31T01:27:25;11.52;85.22
75471;HTU21D;64051;46.320;48.028;2022-10-31T01:29:51;11.51;85.48
75471;HTU21D;64051;46.320;48.028;2022-10-31T01:32:16;11.52;85.79
75471;HTU21D;64051;46.320;48.028;2022-10-31T01:34:44;11.53;85.81
75471;HTU21D;64051;46.320;48.028;2022-10-31T01:37:11;11.56;85.82
75471;HTU21D;64051;46.320;48.028;2022-10-31T01:39:37;11.61;85.83
75471;HTU21D;64051;46.320;48.028;2022-10-31T01:42:03;11.64;85.95
75471;HTU21D;64051;46.320;48.028;2022-10-31T01:47:17;11.71;86.56
75471;HTU21D;64051;46.320;48.028;2022-10-31T01:50:10;11.76;86.26
75471;HTU21D;64051;46.320;48.028;2022-10-31T01:52:40;11.81;85.54
75471;HTU21D;64051;46.320;48.028;2022-10-31T01:55:16;11.85;85.60
75471;HTU21D;64051;46.320;48.028;2022-10-31T01:57:47;11.90;85.67
75471;HTU21D;64051;46.320;48.028;2022-10-31T02:00:16;11.90;85.67
75471;HTU21D;64051;46.320;48.028;2022-10-31T02:02:44;11.92;85.72
75471;HTU21D;64051;46.320;48.028;2022-10-31T02:05:12;11.94;85.58
75471;HTU21D;64051;46.320;48.028;2022-10-31T02:07:42;11.97;85.44
75471;HTU21D;64051;46.320;48.028;2022-10-31T02:10:09;11.97;85.32
75471;HTU21D;64051;46.320;48.028;2022-10-31T02:12:37;11.98;85.44
75471;HTU21D;64051;46.320;48.028;2022-10-31T02:15:03;11.99;85.31
75471;HTU21D;64051;46.320;48.028;2022-10-31T02:17:29;12.01;85.33
75471;HTU21D;64051;46.320;48.028;2022-10-31T02:20:00;12.02;85.51
75471;HTU21D;64051;46.320;48.028;2022-10-31T02:30:14;12.11;85.10
75471;HTU21D;64051;46.320;48.028;2022-10-31T02:35:17;12.11;85.00
75471;HTU21D;64051;46.320;48.028;2022-10-31T02:37:53;12.10;84.95
75471;HTU21D;64051;46.320;48.028;2022-10-31T02:40:26;12.05;84.99
75471;HTU21D;64051;46.320;48.028;2022-10-31T02:43:21;12.00;84.96
75471;HTU21D;64051;46.320;48.028;2022-10-31T02:46:27;11.94;84.78
75471;HTU21D;64051;46.320;48.028;2022-10-31T02:48:44;11.89;84.87
75471;HTU21D;64051;46.320;48.028;2022-10-31T02:51:11;11.86;85.01
75471;HTU21D;64051;46.320;48.028;2022-10-31T02:53:37;11.85;85.24
75471;HTU21D;64051;46.320;48.028;2022-10-31T02:58:35;11.82;85.07
75471;HTU21D;64051;46.320;48.028;2022-10-31T03:03:41;11.76;85.03
75471;HTU21D;64051;46.320;48.028;2022-10-31T03:06:17;11.73;84.97
75471;HTU21D;64051;46.320;48.028;2022-10-31T03:08:49;11.71;85.34
75471;HTU21D;64051;46.320;48.028;2022-10-31T03:11:16;11.70;85.31
75471;HTU21D;64051;46.320;48.028;2022-10-31T03:13:50;11.70;85.09
75471;HTU21D;64051;46.320;48.028;2022-10-31T03:16:23;11.72;85.30
75471;HTU21D;64051;46.320;48.028;2022-10-31T03:18:55;11.73;85.35
75471;HTU21D;64051;46.320;48.028;2022-10-31T03:21:26;11.75;85.35
75471;HTU21D;64051;46.320;48.028;2022-10-31T03:23:54;11.77;85.48
75471;HTU21D;64051;46.320;48.028;2022-10-31T03:26:20;11.81;85.35
75471;HTU21D;64051;46.320;48.028;2022-10-31T03:28:49;11.84;85.45
75471;HTU21D;64051;46.320;48.028;2022-10-31T03:31:18;11.86;85.40
75471;HTU21D;64051;46.320;48.028;2022-10-31T03:33:47;11.89;85.27
75471;HTU21D;64051;46.320;48.028;2022-10-31T03:36:15;11.90;85.34
75471;HTU21D;64051;46.320;48.028;2022-10-31T03:38:42;11.92;85.46
75471;HTU21D;64051;46.320;48.028;2022-10-31T03:41:12;11.93;85.51
75471;HTU21D;64051;46.320;48.028;2022-10-31T03:43:40;11.96;85.38
75471;HTU21D;64051;46.320;48.028;2022-10-31T03:46:07;11.97;85.56
75471;HTU21D;64051;46.320;48.028;2022-10-31T03:48:33;11.98;85.62
75471;HTU21D;64051;46.320;48.028;2022-10-31T03:51:05;12.01;85.46
75471;HTU21D;64051;46.320;48.028;2022-10-31T03:55:59;12.02;85.71
75471;HTU21D;64051;46.320;48.028;2022-10-31T03:58:40;12.06;85.39
75471;HTU21D;64051;46.320;48.028;2022-10-31T04:01:08;12.07;85.53
75471;HTU21D;64051;46.320;48.028;2022-10-31T04:03:40;12.10;85.64
75471;HTU21D;64051;46.320;48.028;2022-10-31T04:06:09;12.13;85.45
75471;HTU21D;64051;46.320;48.028;2022-10-31T04:08:40;12.16;85.51
75471;HTU21D;64051;46.320;48.028;2022-10-31T04:11:11;12.19;85.37
75471;HTU21D;64051;46.320;48.028;2022-10-31T04:13:40;12.22;85.36
75471;HTU21D;64051;46.320;48.028;2022-10-31T04:16:13;12.27;85.37
75471;HTU21D;64051;46.320;48.028;2022-10-31T04:18:40;12.28;85.27
75471;HTU21D;64051;46.320;48.028;2022-10-31T04:21:07;12.30;85.21
75471;HTU21D;64051;46.320;48.028;2022-10-31T04:23:33;12.30;85.10
75471;HTU21D;64051;46.320;48.028;2022-10-31T04:26:05;12.33;85.24
75471;HTU21D;64051;46.320;48.028;2022-10-31T04:28:33;12.34;85.18
75471;HTU21D;64051;46.320;48.028;2022-10-31T04:30:59;12.35;85.29
75471;HTU21D;64051;46.320;48.028;2022-10-31T04:33:27;12.38;85.16
75471;HTU21D;64051;46.320;48.028;2022-10-31T04:35:52;12.40;85.14
75471;HTU21D;64051;46.320;48.028;2022-10-31T04:38:18;12.43;85.20
75471;HTU21D;64051;46.320;48.028;2022-10-31T04:40:45;12.46;85.12
75471;HTU21D;64051;46.320;48.028;2022-10-31T04:43:29;12.48;85.29
75471;HTU21D;64051;46.320;48.028;2022-10-31T04:45:58;12.51;85.16
75471;HTU21D;64051;46.320;48.028;2022-10-31T04:48:25;12.53;85.18
75471;HTU21D;64051;46.320;48.028;2022-10-31T04:50:51;12.59;85.15
75471;HTU21D;64051;46.320;48.028;2022-10-31T04:53:17;12.60;85.12
75471;HTU21D;64051;46.320;48.028;2022-10-31T04:56:09;12.63;85.05
75471;HTU21D;64051;46.320;48.028;2022-10-31T04:58:40;12.65;85.22
75471;HTU21D;64051;46.320;48.028;2022-10-31T05:01:09;12.73;85.16
75471;HTU21D;64051;46.320;48.028;2022-10-31T05:03:35;12.80;85.13
75471;HTU21D;64051;46.320;48.028;2022-10-31T05:06:01;12.91;85.20
75471;HTU21D;64051;46.320;48.028;2022-10-31T05:08:27;13.02;85.13
75471;HTU21D;64051;46.320;48.028;2022-10-31T05:10:54;13.10;85.01
75471;HTU21D;64051;46.320;48.028;2022-10-31T05:13:20;13.16;84.77
75471;HTU21D;64051;46.320;48.028;2022-10-31T05:16:15;13.17;84.61
75471;HTU21D;64051;46.320;48.028;2022-10-31T05:18:47;13.16;84.58
75471;HTU21D;64051;46.320;48.028;2022-10-31T05:21:33;13.16;84.55
75471;HTU21D;64051;46.320;48.028;2022-10-31T05:24:01;13.19;84.57
75471;HTU21D;64051;46.320;48.028;2022-10-31T05:26:28;13.23;84.64
75471;HTU21D;64051;46.320;48.028;2022-10-31T05:28:55;13.32;84.61
75471;HTU21D;64051;46.320;48.028;2022-10-31T05:31:22;13.39;84.46
75471;HTU21D;64051;46.320;48.028;2022-10-31T05:33:49;13.44;84.29
75471;HTU21D;64051;46.320;48.028;2022-10-31T05:36:41;13.47;84.14
75471;HTU21D;64051;46.320;48.028;2022-10-31T05:39:17;13.47;84.02
75471;HTU21D;64051;46.320;48.028;2022-10-31T05:41:46;13.48;83.95
75471;HTU21D;64051;46.320;48.028;2022-10-31T05:44:18;13.51;83.89
75471;HTU21D;64051;46.320;48.028;2022-10-31T05:47:05;13.53;83.81
75471;HTU21D;64051;46.320;48.028;2022-10-31T05:49:49;13.58;83.78
75471;HTU21D;64051;46.320;48.028;2022-10-31T05:52:36;13.63;83.72
75471;HTU21D;64051;46.320;48.028;2022-10-31T05:55:20;13.66;83.64
75471;HTU21D;64051;46.320;48.028;2022-10-31T05:58:02;13.67;83.44
75471;HTU21D;64051;46.320;48.028;2022-10-31T06:00:28;13.68;83.42
75471;HTU21D;64051;46.320;48.028;2022-10-31T06:03:05;13.69;83.38
75471;HTU21D;64051;46.320;48.028;2022-10-31T06:05:45;13.70;83.40
75471;HTU21D;64051;46.320;48.028;2022-10-31T06:08:12;13.73;83.31
75471;HTU21D;64051;46.320;48.028;2022-10-31T06:10:41;13.74;83.30
75471;HTU21D;64051;46.320;48.028;2022-10-31T06:13:07;13.77;83.21
75471;HTU21D;64051;46.320;48.028;2022-10-31T06:15:41;13.78;83.05
75471;HTU21D;64051;46.320;48.028;2022-10-31T06:18:08;13.80;82.97
75471;HTU21D;64051;46.320;48.028;2022-10-31T06:20:43;13.80;82.90
75471;HTU21D;64051;46.320;48.028;2022-10-31T06:23:10;13.80;82.92
75471;HTU21D;64051;46.320;48.028;2022-10-31T06:25:37;13.81;82.93
75471;HTU21D;64051;46.320;48.028;2022-10-31T06:28:04;13.84;82.87
75471;HTU21D;64051;46.320;48.028;2022-10-31T06:30:50;13.86;82.80
75471;HTU21D;64051;46.320;48.028;2022-10-31T06:33:17;13.89;82.74
75471;HTU21D;64051;46.320;48.028;2022-10-31T06:35:56;13.91;82.71
75471;HTU21D;64051;46.320;48.028;2022-10-31T06:38:25;13.93;82.69
75471;HTU21D;64051;46.320;48.028;2022-10-31T06:41:05;13.98;82.64
75471;HTU21D;64051;46.320;48.028;2022-10-31T06:43:41;14.09;82.67
75471;HTU21D;64051;46.320;48.028;2022-10-31T06:46:36;14.20;82.50
75471;HTU21D;64051;46.320;48.028;2022-10-31T06:49:21;14.27;82.29
75471;HTU21D;64051;46.320;48.028;2022-10-31T06:51:54;14.38;82.23
75471;HTU21D;64051;46.320;48.028;2022-10-31T06:54:20;14.50;82.17
75471;HTU21D;64051;46.320;48.028;2022-10-31T06:56:47;14.60;81.99
75471;HTU21D;64051;46.320;48.028;2022-10-31T06:59:16;14.70;81.76
75471;HTU21D;64051;46.320;48.028;2022-10-31T07:02:07;14.78;81.53
75471;HTU21D;64051;46.320;48.028;2022-10-31T07:04:33;14.83;81.31
75471;HTU21D;64051;46.320;48.028;2022-10-31T07:07:00;14.88;81.10
75471;HTU21D;64051;46.320;48.028;2022-10-31T07:09:26;14.89;80.93
75471;HTU21D;64051;46.320;48.028;2022-10-31T07:12:02;14.93;80.75
75471;HTU21D;64051;46.320;48.028;2022-10-31T07:14:30;14.94;80.46
75471;HTU21D;64051;46.320;48.028;2022-10-31T07:16:59;14.97;80.43
75471;HTU21D;64051;46.320;48.028;2022-10-31T07:19:34;14.99;80.29
75471;HTU21D;64051;46.320;48.028;2022-10-31T07:22:01;15.03;80.17
75471;HTU21D;64051;46.320;48.028;2022-10-31T07:24:31;15.09;80.01
75471;HTU21D;64051;46.320;48.028;2022-10-31T07:27:39;15.17;80.14
75471;HTU21D;64051;46.320;48.028;2022-10-31T07:30:07;15.26;79.91
75471;HTU21D;64051;46.320;48.028;2022-10-31T07:32:48;15.31;79.60
75471;HTU21D;64051;46.320;48.028;2022-10-31T07:35:21;15.34;79.27
75471;HTU21D;64051;46.320;48.028;2022-10-31T07:38:06;15.36;79.08
75471;HTU21D;64051;46.320;48.028;2022-10-31T07:40:32;15.37;78.80
75471;HTU21D;64051;46.320;48.028;2022-10-31T07:43:01;15.39;78.69
75471;HTU21D;64051;46.320;48.028;2022-10-31T07:46:03;15.39;78.83
75471;HTU21D;64051;46.320;48.028;2022-10-31T07:48:47;15.39;78.51
75471;HTU21D;64051;46.320;48.028;2022-10-31T07:51:43;15.39;78.32
75471;HTU21D;64051;46.320;48.028;2022-10-31T07:54:27;15.40;78.30
75471;HTU21D;64051;46.320;48.028;2022-10-31T07:56:53;15.44;78.27
75471;HTU21D;64051;46.320;48.028;2022-10-31T07:59:19;15.47;78.14
75471;HTU21D;64051;46.320;48.028;2022-10-31T08:01:45;15.46;77.87
75471;HTU21D;64051;46.320;48.028;2022-10-31T08:04:40;15.43;77.70
75471;HTU21D;64051;46.320;48.028;2022-10-31T08:07:25;15.36;77.68
75471;HTU21D;64051;46.320;48.028;2022-10-31T08:09:59;15.24;77.56
75471;HTU21D;64051;46.320;48.028;2022-10-31T08:12:43;15.17;77.37
75471;HTU21D;64051;46.320;48.028;2022-10-31T08:15:11;15.10;77.63
75471;HTU21D;64051;46.320;48.028;2022-10-31T08:17:37;15.02;77.63
75471;HTU21D;64051;46.320;48.028;2022-10-31T08:20:07;15.00;77.71
75471;HTU21D;64051;46.320;48.028;2022-10-31T08:22:40;14.96;77.89
75471;HTU21D;64051;46.320;48.028;2022-10-31T08:25:06;14.95;77.97
75471;HTU21D;64051;46.320;48.028;2022-10-31T08:27:32;14.97;78.01
75471;HTU21D;64051;46.320;48.028;2022-10-31T08:30:16;15.00;78.02
75471;HTU21D;64051;46.320;48.028;2022-10-31T08:33:02;15.00;77.74
75471;HTU21D;64051;46.320;48.028;2022-10-31T08:35:48;14.97;77.84
75471;HTU21D;64051;46.320;48.028;2022-10-31T08:38:33;14.93;77.82
75471;HTU21D;64051;46.320;48.028;2022-10-31T08:41:03;14.93;77.80
75471;HTU21D;64051;46.320;48.028;2022-10-31T08:43:36;14.88;77.82
75471;HTU21D;64051;46.320;48.028;2022-10-31T08:46:01;14.86;77.79
75471;HTU21D;64051;46.320;48.028;2022-10-31T08:48:31;14.85;77.76
75471;HTU21D;64051;46.320;48.028;2022-10-31T08:50:59;14.80;77.59
75471;HTU21D;64051;46.320;48.028;2022-10-31T08:53:27;14.80;77.60
75471;HTU21D;64051;46.320;48.028;2022-10-31T08:56:10;14.80;77.64
75471;HTU21D;64051;46.320;48.028;2022-10-31T08:58:36;14.82;77.43
75471;HTU21D;64051;46.320;48.028;2022-10-31T09:01:09;14.84;77.40
75471;HTU21D;64051;46.320;48.028;2022-10-31T09:03:35;14.89;77.37
75471;HTU21D;64051;46.320;48.028;2022-10-31T09:06:04;14.94;77.43
75471;HTU21D;64051;46.320;48.028;2022-10-31T09:08:34;14.96;77.33
75471;HTU21D;64051;46.320;48.028;2022-10-31T09:11:02;14.91;77.32
75471;HTU21D;64051;46.320;48.028;2022-10-31T09:13:48;14.82;77.42
75471;HTU21D;64051;46.320;48.028;2022-10-31T09:16:32;14.73;77.52
75471;HTU21D;64051;46.320;48.028;2022-10-31T09:18:59;14.66;77.69
75471;HTU21D;64051;46.320;48.028;2022-10-31T09:21:25;14.60;77.90
75471;HTU21D;64051;46.320;48.028;2022-10-31T09:23:53;14.59;78.07
75471;HTU21D;64051;46.320;48.028;2022-10-31T09:26:20;14.57;78.15
75471;HTU21D;64051;46.320;48.028;2022-10-31T09:28:55;14.58;78.24
75471;HTU21D;64051;46.320;48.028;2022-10-31T09:31:23;14.59;78.14
75471;HTU21D;64051;46.320;48.028;2022-10-31T09:34:03;14.65;78.18
75471;HTU21D;64051;46.320;48.028;2022-10-31T09:36:36;14.73;78.20
75471;HTU21D;64051;46.320;48.028;2022-10-31T09:39:14;14.81;78.04
75471;HTU21D;64051;46.320;48.028;2022-10-31T09:44:56;14.86;77.61
75471;HTU21D;64051;46.320;48.028;2022-10-31T09:50:53;14.78;77.37
75471;HTU21D;64051;46.320;48.028;2022-10-31T09:54:14;14.78;77.83
75471;HTU21D;64051;46.320;48.028;2022-10-31T09:56:43;14.81;77.95
75471;HTU21D;64051;46.320;48.028;2022-10-31T09:59:26;14.81;77.64
75471;HTU21D;64051;46.320;48.028;2022-10-31T10:02:00;14.84;77.85
75471;HTU21D;64051;46.320;48.028;2022-10-31T10:18:46;14.99;76.97
75471;HTU21D;64051;46.320;48.028;2022-10-31T10:21:38;15.00;76.71
75471;HTU21D;64051;46.320;48.028;2022-10-31T10:24:36;14.98;76.86
75471;HTU21D;64051;46.320;48.028;2022-10-31T10:27:14;14.99;76.73
75471;HTU21D;64051;46.320;48.028;2022-10-31T10:30:21;14.98;76.29
75471;HTU21D;64051;46.320;48.028;2022-10-31T10:32:54;14.97;76.55
75471;HTU21D;64051;46.320;48.028;2022-10-31T10:35:45;14.95;76.41
75471;HTU21D;64051;46.320;48.028;2022-10-31T10:38:36;14.91;75.52
75471;HTU21D;64051;46.320;48.028;2022-10-31T10:41:16;14.86;76.19
75471;HTU21D;64051;46.320;48.028;2022-10-31T10:43:42;14.82;76.40
75471;HTU21D;64051;46.320;48.028;2022-10-31T10:59:37;14.54;76.34
75471;HTU21D;64051;46.320;48.028;2022-10-31T11:02:17;14.49;76.26
75471;HTU21D;64051;46.320;48.028;2022-10-31T11:04:45;14.44;76.42
75471;HTU21D;64051;46.320;48.028;2022-10-31T11:07:19;14.43;76.44
75471;HTU21D;64051;46.320;48.028;2022-10-31T11:09:45;14.38;76.47
75471;HTU21D;64051;46.320;48.028;2022-10-31T11:37:43;13.26;78.40
75471;HTU21D;64051;46.320;48.028;2022-10-31T11:40:23;13.21;78.50
75471;HTU21D;64051;46.320;48.028;2022-10-31T11:42:55;13.19;78.65
75471;HTU21D;64051;46.320;48.028;2022-10-31T11:45:31;13.18;78.82
75471;HTU21D;64051;46.320;48.028;2022-10-31T11:47:57;13.23;78.88
75471;HTU21D;64051;46.320;48.028;2022-10-31T11:50:40;13.26;78.98
75471;HTU21D;64051;46.320;48.028;2022-10-31T11:53:30;13.33;79.30
75471;HTU21D;64051;46.320;48.028;2022-10-31T11:56:19;13.35;79.06
75471;HTU21D;64051;46.320;48.028;2022-10-31T11:59:14;13.39;79.29
75471;HTU21D;64051;46.320;48.028;2022-10-31T12:02:14;13.41;79.14
75471;HTU21D;64051;46.320;48.028;2022-10-31T12:04:48;13.44;79.01
75471;HTU21D;64051;46.320;48.028;2022-10-31T12:07:39;13.44;79.04
75471;HTU21D;64051;46.320;48.028;2022-10-31T12:13:33;13.35;78.92
75471;HTU21D;64051;46.320;48.028;2022-10-31T12:16:43;13.31;79.02
75471;HTU21D;64051;46.320;48.028;2022-10-31T12:42:43;13.04;79.14
75471;HTU21D;64051;46.320;48.028;2022-10-31T12:48:38;12.97;79.05
75471;HTU21D;64051;46.320;48.028;2022-10-31T12:54:15;12.87;78.98
75471;HTU21D;64051;46.320;48.028;2022-10-31T12:59:35;12.78;79.01
75471;HTU21D;64051;46.320;48.028;2022-10-31T13:02:18;12.74;79.08
75471;HTU21D;64051;46.320;48.028;2022-10-31T13:05:03;12.71;79.08
75471;HTU21D;64051;46.320;48.028;2022-10-31T13:08:15;12.67;79.22
75471;HTU21D;64051;46.320;48.028;2022-10-31T13:13:27;12.61;79.32
75471;HTU21D;64051;46.320;48.028;2022-10-31T13:16:10;12.59;79.34
75471;HTU21D;64051;46.320;48.028;2022-10-31T13:18:47;12.57;79.45
75471;HTU21D;64051;46.320;48.028;2022-10-31T13:21:38;12.56;79.49
75471;HTU21D;64051;46.320;48.028;2022-10-31T13:24:27;12.53;79.57
75471;HTU21D;64051;46.320;48.028;2022-10-31T13:26:59;12.51;79.51
75471;HTU21D;64051;46.320;48.028;2022-10-31T13:29:54;12.51;79.49
75471;HTU21D;64051;46.320;48.028;2022-10-31T13:32:57;12.50;79.54
75471;HTU21D;64051;46.320;48.028;2022-10-31T13:38:21;12.47;79.40
75471;HTU21D;64051;46.320;48.028;2022-10-31T13:40:59;12.47;79.36
75471;HTU21D;64051;46.320;48.028;2022-10-31T13:46:25;12.45;79.20
75471;HTU21D;64051;46.320;48.028;2022-10-31T13:48:51;12.41;79.21
75471;HTU21D;64051;46.320;48.028;2022-10-31T13:51:30;12.43;79.07
75471;HTU21D;64051;46.320;48.028;2022-10-31T13:54:19;12.43;79.01
75471;HTU21D;64051;46.320;48.028;2022-10-31T13:56:50;12.41;78.84
75471;HTU21D;64051;46.320;48.028;2022-10-31T13:59:37;12.43;78.61
75471;HTU21D;64051;46.320;48.028;2022-10-31T14:02:17;12.44;78.41
75471;HTU21D;64051;46.320;48.028;2022-10-31T14:04:50;12.44;78.38
75471;HTU21D;64051;46.320;48.028;2022-10-31T14:07:32;12.43;78.23
75471;HTU21D;64051;46.320;48.028;2022-10-31T14:10:05;12.45;78.18
75471;HTU21D;64051;46.320;48.028;2022-10-31T14:12:44;12.45;78.00
75471;HTU21D;64051;46.320;48.028;2022-10-31T14:15:29;12.43;77.47
75471;HTU21D;64051;46.320;48.028;2022-10-31T14:18:02;12.42;77.85
75471;HTU21D;64051;46.320;48.028;2022-10-31T14:20:42;12.43;77.67
75471;HTU21D;64051;46.320;48.028;2022-10-31T14:28:54;12.38;77.60
75471;HTU21D;64051;46.320;48.028;2022-10-31T14:33:54;12.34;77.54
75471;HTU21D;64051;46.320;48.028;2022-10-31T14:36:29;12.34;77.48
75471;HTU21D;64051;46.320;48.028;2022-10-31T14:39:05;12.32;77.50
75471;HTU21D;64051;46.320;48.028;2022-10-31T14:50:17;12.21;77.92
75471;HTU21D;64051;46.320;48.028;2022-10-31T14:52:56;12.19;77.98
75471;HTU21D;64051;46.320;48.028;2022-10-31T14:55:28;12.17;78.11
75471;HTU21D;64051;46.320;48.028;2022-10-31T14:58:05;12.17;78.24
75471;HTU21D;64051;46.320;48.028;2022-10-31T15:00:43;12.16;78.37
75471;HTU21D;64051;46.320;48.028;2022-10-31T15:03:39;12.16;78.46
75471;HTU21D;64051;46.320;48.028;2022-10-31T15:06:09;12.14;78.75
75471;HTU21D;64051;46.320;48.028;2022-10-31T15:08:44;12.00;77.97
75471;HTU21D;64051;46.320;48.028;2022-10-31T15:13:45;11.71;78.19
75471;HTU21D;64051;46.320;48.028;2022-10-31T15:16:14;11.57;78.36
75471;HTU21D;64051;46.320;48.028;2022-10-31T15:19:07;11.39;79.26
75471;HTU21D;64051;46.320;48.028;2022-10-31T15:21:44;11.26;79.15
75471;HTU21D;64051;46.320;48.028;2022-10-31T15:24:15;11.15;79.49
75471;HTU21D;64051;46.320;48.028;2022-10-31T15:26:46;11.08;79.78
75471;HTU21D;64051;46.320;48.028;2022-10-31T15:29:15;11.02;79.83
75471;HTU21D;64051;46.320;48.028;2022-10-31T15:32:09;10.97;80.05
75471;HTU21D;64051;46.320;48.028;2022-10-31T15:34:45;10.93;80.21
75471;HTU21D;64051;46.320;48.028;2022-10-31T15:37:19;10.87;80.27
75471;HTU21D;64051;46.320;48.028;2022-10-31T15:39:52;10.82;80.49
75471;HTU21D;64051;46.320;48.028;2022-10-31T15:42:32;10.79;80.45
75471;HTU21D;64051;46.320;48.028;2022-10-31T15:48:03;10.70;80.99
75471;HTU21D;64051;46.320;48.028;2022-10-31T15:56:30;10.58;81.09
75471;HTU21D;64051;46.320;48.028;2022-10-31T15:59:11;10.56;81.14
75471;HTU21D;64051;46.320;48.028;2022-10-31T16:02:08;10.52;81.42
75471;HTU21D;64051;46.320;48.028;2022-10-31T16:05:00;10.46;81.50
75471;HTU21D;64051;46.320;48.028;2022-10-31T16:07:35;10.44;81.36
75471;HTU21D;64051;46.320;48.028;2022-10-31T16:10:26;10.41;81.57
75471;HTU21D;64051;46.320;48.028;2022-10-31T16:12:55;10.41;81.40
75471;HTU21D;64051;46.320;48.028;2022-10-31T16:15:21;10.41;81.54
75471;HTU21D;64051;46.320;48.028;2022-10-31T16:25:46;10.30;81.71
75471;HTU21D;64051;46.320;48.028;2022-10-31T16:28:22;10.29;81.75
75471;HTU21D;64051;46.320;48.028;2022-10-31T16:31:25;10.27;82.38
75471;HTU21D;64051;46.320;48.028;2022-10-31T16:34:14;10.25;82.04
75471;HTU21D;64051;46.320;48.028;2022-10-31T16:36:41;10.24;81.84
75471;HTU21D;64051;46.320;48.028;2022-10-31T16:39:08;10.22;81.81
75471;HTU21D;64051;46.320;48.028;2022-10-31T16:45:25;10.20;81.97
75471;HTU21D;64051;46.320;48.028;2022-10-31T16:48:11;10.19;82.02
75471;HTU21D;64051;46.320;48.028;2022-10-31T16:50:38;10.18;81.99
75471;HTU21D;64051;46.320;48.028;2022-10-31T16:56:23;10.18;82.04
75471;HTU21D;64051;46.320;48.028;2022-10-31T16:58:55;10.15;82.05
75471;HTU21D;64051;46.320;48.028;2022-10-31T17:01:24;10.14;82.12
75471;HTU21D;64051;46.320;48.028;2022-10-31T17:03:50;10.11;82.29
75471;HTU21D;64051;46.320;48.028;2022-10-31T17:06:16;10.10;82.40
75471;HTU21D;64051;46.320;48.028;2022-10-31T17:08:44;10.07;82.47
75471;HTU21D;64051;46.320;48.028;2022-10-31T17:11:21;10.05;82.55
75471;HTU21D;64051;46.320;48.028;2022-10-31T17:13:51;10.01;82.56
75471;HTU21D;64051;46.320;48.028;2022-10-31T17:16:17;9.98;82.72
75471;HTU21D;64051;46.320;48.028;2022-10-31T17:18:48;9.97;82.58
75471;HTU21D;64051;46.320;48.028;2022-10-31T17:21:24;9.95;82.65
75471;HTU21D;64051;46.320;48.028;2022-10-31T17:23:52;9.94;82.59
75471;HTU21D;64051;46.320;48.028;2022-10-31T17:26:24;9.94;82.62
75471;HTU21D;64051;46.320;48.028;2022-10-31T17:28:50;9.94;82.74
75471;HTU21D;64051;46.320;48.028;2022-10-31T17:31:28;9.93;82.78
75471;HTU21D;64051;46.320;48.028;2022-10-31T17:34:02;9.91;82.75
75471;HTU21D;64051;46.320;48.028;2022-10-31T17:36:36;9.91;82.71
75471;HTU21D;64051;46.320;48.028;2022-10-31T17:39:03;9.91;82.78
75471;HTU21D;64051;46.320;48.028;2022-10-31T17:41:32;9.90;82.84
75471;HTU21D;64051;46.320;48.028;2022-10-31T17:44:13;9.88;82.76
75471;HTU21D;64051;46.320;48.028;2022-10-31T17:46:54;9.84;82.96
75471;HTU21D;64051;46.320;48.028;2022-10-31T17:49:25;9.83;82.85
75471;HTU21D;64051;46.320;48.028;2022-10-31T17:51:55;9.82;82.82
75471;HTU21D;64051;46.320;48.028;2022-10-31T17:58:11;9.77;83.08
75471;HTU21D;64051;46.320;48.028;2022-10-31T18:00:39;9.78;83.04
75471;HTU21D;64051;46.320;48.028;2022-10-31T18:03:12;9.79;83.11
75471;HTU21D;64051;46.320;48.028;2022-10-31T18:05:38;9.81;83.05
75471;HTU21D;64051;46.320;48.028;2022-10-31T18:08:04;9.82;83.28
75471;HTU21D;64051;46.320;48.028;2022-10-31T18:10:33;9.83;83.22
75471;HTU21D;64051;46.320;48.028;2022-10-31T18:13:02;9.85;83.17
75471;HTU21D;64051;46.320;48.028;2022-10-31T18:15:43;9.84;83.47
75471;HTU21D;64051;46.320;48.028;2022-10-31T18:18:19;9.85;83.70
75471;HTU21D;64051;46.320;48.028;2022-10-31T18:20:47;9.84;83.40
75471;HTU21D;64051;46.320;48.028;2022-10-31T18:23:14;9.83;83.73
75471;HTU21D;64051;46.320;48.028;2022-10-31T18:25:43;9.85;83.91
75471;HTU21D;64051;46.320;48.028;2022-10-31T18:28:10;9.83;83.84
75471;HTU21D;64051;46.320;48.028;2022-10-31T18:30:46;9.84;83.86
75471;HTU21D;64051;46.320;48.028;2022-10-31T18:33:20;9.82;83.87
75471;HTU21D;64051;46.320;48.028;2022-10-31T18:35:52;9.81;84.00